Time;durP1;ratioP1;P1;durP2;ratioP2;P2;SDS_P1;SDS_P2;PMS_P1;PMS_P2;Temp;Humidity;BMP_temperature;BMP_pressure;BME280_temperature;BME280_humidity;BME280_pressure;Samples;Min_cycle;Max_cycle;Signal;HPM_P1;HPM_P2
2023/07/28 00:00:28;;;;;;;3.20;2.40;;;18.80;99.90;;;;;;5057047;28;20029;-55
2023/07/28 00:03:14;;;;;;;3.03;2.22;;;18.70;99.90;;;;;;5051538;28;20163;-51
2023/07/28 00:06:00;;;;;;;4.07;2.70;;;18.70;99.90;;;;;;5050865;28;20087;-55
2023/07/28 00:08:46;;;;;;;4.57;2.70;;;18.80;99.90;;;;;;5051883;28;20409;-51
2023/07/28 00:11:32;;;;;;;5.65;2.60;;;18.70;99.90;;;;;;5050832;28;20025;-51
2023/07/28 00:14:18;;;;;;;2.75;2.55;;;18.80;99.90;;;;;;5055806;28;20024;-51
2023/07/28 00:17:04;;;;;;;6.35;2.67;;;18.80;99.90;;;;;;5052700;28;20595;-54
2023/07/28 00:19:50;;;;;;;3.80;2.90;;;18.70;99.90;;;;;;5054190;28;20672;-50
2023/07/28 00:22:36;;;;;;;4.43;2.45;;;18.80;99.90;;;;;;5053085;28;20465;-51
2023/07/28 00:25:22;;;;;;;3.35;2.72;;;18.70;99.90;;;;;;5051227;28;20025;-53
2023/07/28 00:28:08;;;;;;;5.88;2.70;;;18.80;99.90;;;;;;5053195;28;20024;-48
2023/07/28 00:30:54;;;;;;;4.13;2.60;;;18.70;99.90;;;;;;5038784;28;20029;-50
2023/07/28 00:33:39;;;;;;;6.45;2.88;;;18.70;99.90;;;;;;5052291;28;20056;-50
2023/07/28 00:36:26;;;;;;;4.15;2.70;;;18.70;99.90;;;;;;5050791;28;20096;-48
2023/07/28 00:39:12;;;;;;;4.85;2.90;;;18.80;99.90;;;;;;5052876;28;20087;-50
2023/07/28 00:41:57;;;;;;;4.88;3.42;;;18.70;99.90;;;;;;5052977;28;20099;-50
2023/07/28 00:44:43;;;;;;;3.97;2.72;;;18.70;99.90;;;;;;5051905;28;20044;-55
2023/07/28 00:47:29;;;;;;;4.28;2.53;;;18.60;99.90;;;;;;5052488;28;20104;-54
2023/07/28 00:50:15;;;;;;;4.25;2.65;;;18.60;99.90;;;;;;5069731;28;20051;-53
2023/07/28 00:53:02;;;;;;;3.13;2.80;;;18.70;99.90;;;;;;5073648;28;20024;-52
2023/07/28 00:55:48;;;;;;;3.92;2.72;;;18.70;99.90;;;;;;5074338;28;20086;-49
2023/07/28 00:58:34;;;;;;;3.15;2.42;;;18.70;99.90;;;;;;5053695;28;20029;-50
2023/07/28 01:01:20;;;;;;;3.90;2.90;;;18.60;99.90;;;;;;5058588;28;20126;-50
2023/07/28 01:04:06;;;;;;;4.28;2.50;;;18.60;99.90;;;;;;5052983;28;20452;-52
2023/07/28 01:06:52;;;;;;;6.05;3.00;;;18.60;99.90;;;;;;5073747;28;20060;-53
2023/07/28 01:09:56;;;;;;;5.95;2.63;;;18.60;99.90;;;;;;5072716;28;20021;-52
2023/07/28 01:12:42;;;;;;;3.10;2.63;;;18.60;99.90;;;;;;5072995;28;20584;-56
2023/07/28 01:15:28;;;;;;;4.40;2.90;;;18.60;99.90;;;;;;5072984;28;20076;-48
2023/07/28 01:18:15;;;;;;;4.55;2.80;;;18.60;99.90;;;;;;5073085;28;20175;-54
2023/07/28 01:21:05;;;;;;;4.18;2.90;;;18.60;99.90;;;;;;5072382;28;20029;-51
2023/07/28 01:24:20;;;;;;;3.33;2.50;;;18.60;99.90;;;;;;5072598;28;20025;-55
2023/07/28 01:27:07;;;;;;;5.00;2.60;;;18.60;99.90;;;;;;5060528;28;20060;-52
2023/07/28 01:29:53;;;;;;;2.83;2.40;;;18.60;99.90;;;;;;5034408;28;20040;-50
2023/07/28 01:32:39;;;;;;;4.15;2.25;;;18.60;99.90;;;;;;5072458;28;20035;-51
2023/07/28 01:35:26;;;;;;;4.32;2.35;;;18.50;99.90;;;;;;5073058;28;20021;-50
2023/07/28 01:38:12;;;;;;;4.38;2.50;;;18.60;99.90;;;;;;5073519;28;20493;-50
2023/07/28 01:40:58;;;;;;;2.35;2.15;;;18.70;99.90;;;;;;5073483;28;20438;-55
2023/07/28 01:43:44;;;;;;;3.03;2.20;;;18.70;99.90;;;;;;5072631;28;20041;-49
2023/07/28 01:46:30;;;;;;;4.82;2.53;;;18.70;99.90;;;;;;5071233;28;20405;-54
2023/07/28 01:49:16;;;;;;;2.90;2.50;;;18.70;99.90;;;;;;5057557;28;20052;-47
2023/07/28 01:52:03;;;;;;;5.32;2.55;;;18.50;99.90;;;;;;5057758;28;20438;-46
2023/07/28 01:54:50;;;;;;;5.03;2.55;;;18.50;99.90;;;;;;5052270;28;20029;-50
2023/07/28 01:57:40;;;;;;;3.22;2.30;;;18.50;99.90;;;;;;5051449;28;20044;-49
2023/07/28 02:00:26;;;;;;;3.78;2.47;;;18.50;99.90;;;;;;5052174;28;20021;-52
2023/07/28 02:03:12;;;;;;;3.67;2.08;;;18.50;99.90;;;;;;5052182;28;20036;-46
2023/07/28 02:06:00;;;;;;;3.13;2.38;;;18.50;99.90;;;;;;5037931;28;20025;-55
2023/07/28 02:08:46;;;;;;;6.55;2.67;;;18.50;99.90;;;;;;5052303;28;20037;-47
2023/07/28 02:11:32;;;;;;;3.70;2.38;;;18.60;99.90;;;;;;5053076;28;20132;-48
2023/07/28 02:14:18;;;;;;;3.33;2.17;;;18.60;99.90;;;;;;5052449;28;20036;-48
2023/07/28 02:17:04;;;;;;;3.63;2.20;;;18.60;99.90;;;;;;5051834;28;20052;-48
2023/07/28 02:19:50;;;;;;;3.55;2.08;;;18.60;99.90;;;;;;5052377;28;20025;-54
2023/07/28 02:22:36;;;;;;;2.30;2.10;;;18.70;99.90;;;;;;5038110;28;20091;-53
2023/07/28 02:25:22;;;;;;;5.93;2.65;;;18.70;99.90;;;;;;5051463;28;20025;-50
2023/07/28 02:28:10;;;;;;;5.10;2.70;;;18.80;99.90;;;;;;5051132;28;20071;-51
2023/07/28 02:30:56;;;;;;;2.40;2.20;;;18.80;99.90;;;;;;5050898;28;20021;-48
2023/07/28 02:33:42;;;;;;;4.28;2.38;;;18.80;99.90;;;;;;5051059;28;20112;-53
2023/07/28 02:36:32;;;;;;;3.22;2.20;;;18.80;99.90;;;;;;5051657;28;20075;-49
2023/07/28 02:39:18;;;;;;;2.78;2.15;;;18.80;99.90;;;;;;5050562;28;20485;-47
2023/07/28 02:42:04;;;;;;;5.65;2.60;;;18.70;99.90;;;;;;5051493;28;20021;-48
2023/07/28 02:44:50;;;;;;;3.05;2.30;;;18.70;99.90;;;;;;5050635;28;20032;-47
2023/07/28 02:47:36;;;;;;;4.45;2.40;;;18.70;99.90;;;;;;5051947;28;20033;-50
2023/07/28 02:50:23;;;;;;;3.10;2.20;;;18.70;99.90;;;;;;5036816;28;20037;-49
2023/07/28 02:53:09;;;;;;;2.78;2.15;;;18.60;99.90;;;;;;5051344;28;20462;-50
2023/07/28 02:55:56;;;;;;;3.63;2.72;;;18.70;99.90;;;;;;5050948;28;20029;-54
2023/07/28 02:58:42;;;;;;;3.95;2.47;;;18.60;99.90;;;;;;5051611;28;20029;-50
2023/07/28 03:01:33;;;;;;;5.05;2.63;;;18.60;99.90;;;;;;5051022;28;20033;-46
2023/07/28 03:04:22;;;;;;;2.65;2.30;;;18.60;99.90;;;;;;5050886;28;20052;-50
2023/07/28 03:07:07;;;;;;;3.22;2.50;;;18.60;99.90;;;;;;5051265;28;20079;-50
2023/07/28 03:09:53;;;;;;;3.30;2.40;;;18.60;99.90;;;;;;5051021;28;20067;-50
2023/07/28 03:12:39;;;;;;;4.53;2.33;;;18.60;99.90;;;;;;5051141;28;20638;-51
2023/07/28 03:15:25;;;;;;;3.00;2.58;;;18.60;99.90;;;;;;5035868;28;20104;-52
2023/07/28 03:18:11;;;;;;;4.40;2.60;;;18.60;99.90;;;;;;5050581;28;20074;-54
2023/07/28 03:20:57;;;;;;;3.00;2.33;;;18.60;99.90;;;;;;5051093;28;20048;-46
2023/07/28 03:23:43;;;;;;;3.85;2.58;;;18.50;99.90;;;;;;5051017;28;20029;-47
2023/07/28 03:26:29;;;;;;;2.95;2.60;;;18.50;99.90;;;;;;5051719;28;20029;-47
2023/07/28 03:29:15;;;;;;;2.70;2.40;;;18.40;99.90;;;;;;5050777;28;20059;-47
2023/07/28 03:32:01;;;;;;;3.78;2.60;;;18.40;99.90;;;;;;5050642;28;20025;-47
2023/07/28 03:34:46;;;;;;;4.03;2.50;;;18.50;99.90;;;;;;5050861;28;20029;-45
2023/07/28 03:37:33;;;;;;;5.45;2.55;;;18.50;99.90;;;;;;5050575;28;20109;-45
2023/07/28 03:40:19;;;;;;;3.75;2.63;;;18.60;99.90;;;;;;5050635;28;20112;-47
2023/07/28 03:43:05;;;;;;;5.10;2.40;;;18.60;99.90;;;;;;5050450;28;20037;-48
2023/07/28 03:45:51;;;;;;;2.97;2.50;;;18.50;99.90;;;;;;5050310;28;20021;-48
2023/07/28 03:48:37;;;;;;;4.72;2.50;;;18.50;99.90;;;;;;5050208;28;20061;-54
2023/07/28 03:51:23;;;;;;;6.00;2.40;;;18.60;99.90;;;;;;5036425;28;20028;-50
2023/07/28 03:54:09;;;;;;;4.13;2.53;;;18.60;99.90;;;;;;5050555;28;20056;-49
2023/07/28 03:56:55;;;;;;;4.47;2.50;;;18.50;99.90;;;;;;5035640;28;20405;-48
2023/07/28 03:59:41;;;;;;;6.93;2.40;;;18.50;99.90;;;;;;5050026;28;20460;-51
2023/07/28 04:02:26;;;;;;;3.10;2.33;;;18.50;99.90;;;;;;5049999;28;20021;-50
2023/07/28 04:05:12;;;;;;;3.85;2.42;;;18.40;99.90;;;;;;5036551;28;20032;-52
2023/07/28 04:07:58;;;;;;;2.92;2.20;;;18.50;99.90;;;;;;5034179;28;20029;-51
2023/07/28 04:10:44;;;;;;;2.67;2.47;;;18.50;99.90;;;;;;5052773;28;20112;-45
2023/07/28 04:13:30;;;;;;;4.80;2.80;;;18.50;99.90;;;;;;5054104;28;20467;-46
2023/07/28 04:16:16;;;;;;;5.25;2.40;;;18.50;99.90;;;;;;5053813;28;20523;-47
2023/07/28 04:19:02;;;;;;;4.93;2.60;;;18.50;99.90;;;;;;5053903;28;20025;-48
2023/07/28 04:21:48;;;;;;;3.10;2.60;;;18.50;99.90;;;;;;5054573;28;20025;-48
2023/07/28 04:24:34;;;;;;;5.85;2.65;;;18.50;99.90;;;;;;5054461;28;20060;-54
2023/07/28 04:27:20;;;;;;;3.78;2.40;;;18.50;99.90;;;;;;5053302;28;20033;-49
2023/07/28 04:30:06;;;;;;;3.45;2.50;;;18.60;99.90;;;;;;5053783;28;20048;-53
2023/07/28 04:32:52;;;;;;;4.95;2.40;;;18.50;99.90;;;;;;5054302;28;20390;-51
2023/07/28 04:35:38;;;;;;;3.15;2.50;;;18.60;99.90;;;;;;5054416;28;20041;-47
2023/07/28 04:38:24;;;;;;;3.30;2.40;;;18.60;99.90;;;;;;5053619;28;20051;-55
2023/07/28 04:41:10;;;;;;;2.58;2.30;;;18.60;99.90;;;;;;5053882;28;20112;-53
2023/07/28 04:43:56;;;;;;;4.40;2.40;;;18.60;99.90;;;;;;5026731;28;20075;-55
2023/07/28 04:46:42;;;;;;;3.38;2.25;;;18.50;99.90;;;;;;5038625;28;20557;-53
2023/07/28 04:49:28;;;;;;;6.43;2.47;;;18.50;99.90;;;;;;5053481;28;20103;-49
2023/07/28 04:52:14;;;;;;;3.53;2.30;;;18.60;99.90;;;;;;5053635;28;20033;-55
2023/07/28 04:55:00;;;;;;;3.60;2.40;;;18.60;99.90;;;;;;5053578;28;20114;-50
2023/07/28 04:57:46;;;;;;;4.50;2.70;;;18.60;99.90;;;;;;5039249;28;20460;-46
2023/07/28 05:00:32;;;;;;;3.83;2.17;;;18.60;99.90;;;;;;5053026;28;20025;-48
2023/07/28 05:03:18;;;;;;;2.50;2.20;;;18.60;99.90;;;;;;5053365;28;20033;-46
2023/07/28 05:06:05;;;;;;;4.63;2.28;;;18.70;99.90;;;;;;5038569;28;20116;-47
2023/07/28 05:08:50;;;;;;;2.17;1.98;;;18.60;99.90;;;;;;5053187;28;20029;-48
2023/07/28 05:11:36;;;;;;;3.38;2.20;;;18.70;99.90;;;;;;5053154;28;20111;-46
2023/07/28 05:14:22;;;;;;;2.25;2.05;;;18.60;99.90;;;;;;5052853;28;20041;-50
2023/07/28 05:17:08;;;;;;;3.13;2.25;;;18.60;99.90;;;;;;5052867;28;20040;-47
2023/07/28 05:19:54;;;;;;;3.55;2.20;;;18.70;99.90;;;;;;5052582;28;20444;-48
2023/07/28 05:22:40;;;;;;;4.47;2.30;;;18.80;99.90;;;;;;5052067;28;20565;-48
2023/07/28 05:25:26;;;;;;;2.30;2.10;;;18.70;99.90;;;;;;5054462;28;20109;-51
2023/07/28 05:28:12;;;;;;;2.22;1.85;;;18.70;99.90;;;;;;5052976;28;20052;-49
2023/07/28 05:31:06;;;;;;;2.10;1.90;;;18.80;99.90;;;;;;5038687;28;20021;-48
2023/07/28 05:33:53;;;;;;;5.38;2.00;;;18.90;99.90;;;;;;5052663;28;20052;-46
2023/07/28 05:36:40;;;;;;;3.35;2.20;;;18.90;99.90;;;;;;5038632;28;20100;-49
2023/07/28 05:39:25;;;;;;;2.80;2.45;;;18.80;99.90;;;;;;5052294;28;20017;-51
2023/07/28 05:42:11;;;;;;;3.47;2.28;;;18.70;99.90;;;;;;5051501;28;20025;-47
2023/07/28 05:44:59;;;;;;;2.25;1.88;;;18.80;99.90;;;;;;5052313;28;20048;-46
2023/07/28 05:47:45;;;;;;;2.58;2.20;;;18.90;99.90;;;;;;5051770;28;20033;-46
2023/07/28 05:50:31;;;;;;;2.42;1.98;;;18.90;99.90;;;;;;5052165;28;20056;-48
2023/07/28 05:53:17;;;;;;;6.07;2.20;;;18.90;99.90;;;;;;5052184;28;20033;-51
2023/07/28 05:56:03;;;;;;;2.95;2.15;;;19.10;99.90;;;;;;5051424;28;20017;-46
2023/07/28 05:58:49;;;;;;;3.00;2.05;;;19.10;99.90;;;;;;5050748;28;20505;-46
2023/07/28 06:01:35;;;;;;;3.50;2.00;;;19.20;99.90;;;;;;5052744;28;20021;-45
2023/07/28 06:04:21;;;;;;;3.00;2.30;;;19.30;99.90;;;;;;5052174;28;20044;-45
2023/07/28 06:07:07;;;;;;;2.80;2.08;;;19.20;99.90;;;;;;5051796;28;20029;-49
2023/07/28 06:09:53;;;;;;;2.58;2.00;;;19.10;99.90;;;;;;5052134;28;20068;-49
2023/07/28 06:12:39;;;;;;;3.42;2.10;;;19.20;99.90;;;;;;5051537;28;20059;-50
2023/07/28 06:15:25;;;;;;;2.45;2.05;;;19.40;99.90;;;;;;5051960;28;20148;-50
2023/07/28 06:18:11;;;;;;;2.92;1.77;;;19.30;99.90;;;;;;5037083;28;20059;-51
2023/07/28 06:21:00;;;;;;;2.50;2.08;;;19.40;99.90;;;;;;5052433;28;20029;-48
2023/07/28 06:23:46;;;;;;;4.53;2.00;;;19.50;99.90;;;;;;5051780;28;20029;-51
2023/07/28 06:26:32;;;;;;;3.45;2.08;;;19.50;99.90;;;;;;5037135;28;20492;-49
2023/07/28 06:29:18;;;;;;;4.35;2.10;;;19.50;99.90;;;;;;5051442;28;20582;-49
2023/07/28 06:32:05;;;;;;;2.70;1.92;;;19.50;99.90;;;;;;5037709;28;20493;-49
2023/07/28 06:34:51;;;;;;;2.70;1.85;;;19.40;99.90;;;;;;5051239;28;20032;-51
2023/07/28 06:37:38;;;;;;;2.33;1.92;;;19.50;99.90;;;;;;5050586;28;20032;-55
2023/07/28 06:40:24;;;;;;;5.57;4.20;;;19.60;99.90;;;;;;5051168;28;20028;-49
2023/07/28 06:43:10;;;;;;;3.42;2.90;;;19.80;99.90;;;;;;5037456;28;20425;-48
2023/07/28 06:45:59;;;;;;;2.90;2.40;;;19.80;99.90;;;;;;5052202;28;20040;-51
2023/07/28 06:48:45;;;;;;;2.85;2.47;;;19.90;99.90;;;;;;5052003;28;20029;-53
2023/07/28 06:51:33;;;;;;;2.40;2.10;;;19.80;99.90;;;;;;5051442;28;20025;-48
2023/07/28 06:54:19;;;;;;;2.08;1.88;;;19.80;99.90;;;;;;5050592;28;20033;-48
2023/07/28 06:57:06;;;;;;;2.72;1.85;;;19.80;99.90;;;;;;5050942;28;20159;-53
2023/07/28 06:59:52;;;;;;;2.10;1.90;;;19.90;99.90;;;;;;5050960;28;20029;-53
2023/07/28 07:02:38;;;;;;;3.70;1.90;;;20.00;99.90;;;;;;5024636;28;20547;-51
2023/07/28 07:05:24;;;;;;;3.85;2.10;;;20.00;99.90;;;;;;5051949;28;20025;-51
2023/07/28 07:08:10;;;;;;;2.50;2.15;;;20.10;99.90;;;;;;5036052;28;20646;-47
2023/07/28 07:10:56;;;;;;;2.33;2.08;;;20.30;99.90;;;;;;5051566;28;20029;-52
2023/07/28 07:13:42;;;;;;;3.00;1.92;;;20.30;99.90;;;;;;5050973;28;20029;-49
2023/07/28 07:16:28;;;;;;;3.97;2.63;;;20.30;99.90;;;;;;5035890;28;20048;-46
2023/07/28 07:19:15;;;;;;;3.30;2.10;;;20.30;99.90;;;;;;5050402;28;20044;-50
2023/07/28 07:22:01;;;;;;;2.10;1.90;;;20.50;99.90;;;;;;5051163;28;20048;-51
2023/07/28 07:24:47;;;;;;;2.50;1.80;;;20.40;99.90;;;;;;5051027;28;20026;-51
2023/07/28 07:27:50;;;;;;;2.88;2.10;;;20.50;99.90;;;;;;5050661;28;20040;-50
2023/07/28 07:30:36;;;;;;;2.33;2.13;;;20.30;99.90;;;;;;5030812;28;20075;-48
2023/07/28 07:33:22;;;;;;;4.07;2.42;;;20.30;99.90;;;;;;5069506;28;20024;-47
2023/07/28 07:36:18;;;;;;;3.13;2.33;;;20.30;99.90;;;;;;5071201;28;20436;-50
2023/07/28 07:39:05;;;;;;;3.15;2.20;;;20.50;99.90;;;;;;5050980;28;20036;-47
2023/07/28 07:41:51;;;;;;;3.13;2.10;;;20.50;99.90;;;;;;5057765;28;20021;-50
2023/07/28 07:44:37;;;;;;;3.63;2.22;;;20.60;99.90;;;;;;5056683;28;20032;-47
2023/07/28 07:47:23;;;;;;;2.63;2.20;;;20.70;99.90;;;;;;5065660;28;20032;-48
2023/07/28 07:50:10;;;;;;;2.28;2.00;;;20.70;99.90;;;;;;5065270;28;20021;-52
2023/07/28 07:52:56;;;;;;;2.58;2.28;;;20.70;99.90;;;;;;5039327;28;20037;-51
2023/07/28 07:55:42;;;;;;;4.22;2.30;;;20.70;99.90;;;;;;5056121;28;20022;-54
2023/07/28 07:58:31;;;;;;;3.33;2.22;;;20.70;99.90;;;;;;5055505;28;20504;-54
2023/07/28 08:01:17;;;;;;;2.40;2.20;;;20.70;99.90;;;;;;5057275;28;20159;-51
2023/07/28 08:04:03;;;;;;;3.78;2.50;;;20.80;99.90;;;;;;5054201;28;20029;-53
2023/07/28 08:06:49;;;;;;;3.35;2.17;;;21.00;99.90;;;;;;5054024;28;20553;-53
2023/07/28 08:09:35;;;;;;;2.35;2.15;;;20.90;99.90;;;;;;5060407;28;20496;-49
2023/07/28 08:12:21;;;;;;;3.15;2.25;;;20.90;99.90;;;;;;5037874;28;20025;-48
2023/07/28 08:15:07;;;;;;;3.90;2.42;;;21.00;99.90;;;;;;5039829;28;20029;-50
2023/07/28 08:17:53;;;;;;;4.88;2.40;;;21.10;99.90;;;;;;5051976;28;20053;-50
2023/07/28 08:20:42;;;;;;;2.83;2.40;;;21.20;99.90;;;;;;5052703;28;20021;-51
2023/07/28 08:23:28;;;;;;;3.50;2.17;;;21.20;99.90;;;;;;5053681;28;20029;-52
2023/07/28 08:26:17;;;;;;;2.75;2.30;;;21.10;99.90;;;;;;5037682;28;20039;-56
2023/07/28 08:29:03;;;;;;;4.65;2.25;;;21.10;99.90;;;;;;5071262;28;20588;-52
2023/07/28 08:31:49;;;;;;;2.88;2.58;;;21.20;99.90;;;;;;5035463;28;20129;-56
2023/07/28 08:34:35;;;;;;;3.55;2.65;;;21.30;99.90;;;;;;5049710;28;20064;-51
2023/07/28 08:37:21;;;;;;;3.75;2.53;;;21.30;99.90;;;;;;5056774;28;20082;-51
2023/07/28 08:40:08;;;;;;;2.80;2.42;;;21.40;99.90;;;;;;5050123;28;20571;-54
2023/07/28 08:42:54;;;;;;;2.75;2.13;;;21.50;99.90;;;;;;5052216;28;20521;-46
2023/07/28 08:45:40;;;;;;;2.22;2.03;;;21.50;99.90;;;;;;5053025;28;20545;-55
2023/07/28 08:48:27;;;;;;;4.32;2.20;;;21.50;99.90;;;;;;5048139;28;20052;-51
2023/07/28 08:51:14;;;;;;;2.63;2.42;;;21.60;99.90;;;;;;5059493;28;20096;-52
2023/07/28 08:54:00;;;;;;;3.60;2.33;;;21.90;99.90;;;;;;5070274;28;20032;-53
2023/07/28 08:56:46;;;;;;;3.10;2.60;;;22.00;99.90;;;;;;5062823;28;20025;-52
2023/07/28 08:59:32;;;;;;;3.50;2.15;;;22.00;99.90;;;;;;5066201;28;20029;-50
2023/07/28 09:02:20;;;;;;;2.63;2.42;;;22.30;99.90;;;;;;5057303;28;20029;-53
2023/07/28 09:05:06;;;;;;;2.72;2.40;;;22.50;99.90;;;;;;5069258;28;20052;-55
2023/07/28 09:07:52;;;;;;;4.35;2.65;;;22.70;99.90;;;;;;5053085;28;20025;-52
2023/07/28 09:10:48;;;;;;;3.05;2.70;;;22.60;99.90;;;;;;5052957;28;20033;-50
2023/07/28 09:13:41;;;;;;;3.38;2.60;;;22.60;99.90;;;;;;5038513;28;20021;-53
2023/07/28 09:16:29;;;;;;;9.40;2.80;;;22.60;99.90;;;;;;5052174;28;20104;-52
2023/07/28 09:19:15;;;;;;;3.85;2.83;;;22.70;99.90;;;;;;5053964;28;20021;-55
2023/07/28 09:22:02;;;;;;;2.63;2.42;;;22.60;99.90;;;;;;5053385;28;20036;-53
2023/07/28 09:24:48;;;;;;;6.20;3.00;;;22.60;99.90;;;;;;5052961;28;20039;-55
2023/07/28 09:27:35;;;;;;;5.00;3.03;;;22.60;99.90;;;;;;5038347;28;20041;-55
2023/07/28 09:30:23;;;;;;;4.10;3.20;;;22.70;99.90;;;;;;5038739;28;20048;-55
2023/07/28 09:33:09;;;;;;;4.15;3.10;;;22.80;99.90;;;;;;5052982;28;20021;-55
2023/07/28 09:35:54;;;;;;;3.50;3.20;;;22.70;99.90;;;;;;5052879;28;20441;-55
2023/07/28 09:38:41;;;;;;;3.88;3.20;;;22.80;99.90;;;;;;5039162;28;20786;-53
2023/07/28 09:41:30;;;;;;;3.70;3.03;;;22.70;99.90;;;;;;5052571;28;20426;-53
2023/07/28 09:44:16;;;;;;;3.30;2.92;;;22.60;99.90;;;;;;5023602;28;20021;-51
2023/07/28 09:47:03;;;;;;;3.60;3.30;;;22.60;99.90;;;;;;5052473;28;20029;-56
2023/07/28 09:49:53;;;;;;;3.88;3.20;;;22.70;99.90;;;;;;5052598;28;20041;-52
2023/07/28 09:52:43;;;;;;;3.13;2.83;;;22.80;99.90;;;;;;5052187;28;20079;-50
2023/07/28 09:55:29;;;;;;;3.20;2.90;;;23.10;99.90;;;;;;5037812;28;20116;-57
2023/07/28 09:58:17;;;;;;;4.97;3.15;;;23.00;99.90;;;;;;5051645;28;20020;-53
2023/07/28 10:01:05;;;;;;;3.22;2.92;;;23.00;99.90;;;;;;5053340;28;20517;-52
2023/07/28 10:03:51;;;;;;;4.15;3.13;;;23.00;99.90;;;;;;5053160;28;20068;-53
2023/07/28 10:06:38;;;;;;;5.53;4.43;;;23.10;99.90;;;;;;5053027;28;20056;-45
2023/07/28 10:09:30;;;;;;;5.88;3.10;;;23.10;99.80;;;;;;5051591;28;20040;-54
2023/07/28 10:12:25;;;;;;;3.42;2.60;;;23.20;99.50;;;;;;5052448;28;20032;-54
2023/07/28 10:15:20;;;;;;;3.58;2.85;;;22.90;99.90;;;;;;5052189;28;20116;-49
2023/07/28 10:18:07;;;;;;;3.92;2.97;;;22.90;99.90;;;;;;5050407;28;20347;-53
2023/07/28 10:20:53;;;;;;;4.38;2.45;;;23.00;99.90;;;;;;5052002;28;20079;-51
2023/07/28 10:23:39;;;;;;;3.08;2.63;;;23.00;99.90;;;;;;5038034;28;20057;-49
2023/07/28 10:26:35;;;;;;;3.45;2.33;;;22.90;99.90;;;;;;5052006;28;20017;-49
2023/07/28 10:29:21;;;;;;;2.30;2.10;;;22.90;99.90;;;;;;5051249;28;20044;-48
2023/07/28 10:32:07;;;;;;;2.70;2.30;;;23.20;99.90;;;;;;5051230;28;20037;-52
2023/07/28 10:35:01;;;;;;;3.40;2.42;;;23.30;99.90;;;;;;5051504;28;20118;-49
2023/07/28 10:37:47;;;;;;;2.60;2.40;;;23.50;99.50;;;;;;5051780;28;20485;-54
2023/07/28 10:40:34;;;;;;;3.22;2.80;;;23.30;99.40;;;;;;5036962;28;20096;-48
2023/07/28 10:43:20;;;;;;;3.35;2.50;;;23.20;99.30;;;;;;5051350;28;20033;-50
2023/07/28 10:46:14;;;;;;;3.17;2.70;;;23.20;99.40;;;;;;5051360;28;20032;-47
2023/07/28 10:49:07;;;;;;;3.70;2.50;;;23.10;99.60;;;;;;5051639;28;20528;-49
2023/07/28 10:51:54;;;;;;;2.90;2.60;;;23.00;99.50;;;;;;5051736;28;20033;-48
2023/07/28 10:54:40;;;;;;;3.10;2.70;;;23.00;99.50;;;;;;5051036;28;20037;-52
2023/07/28 10:57:29;;;;;;;4.38;2.75;;;23.10;98.90;;;;;;5051413;28;20017;-45
2023/07/28 11:00:17;;;;;;;2.97;2.67;;;22.90;99.00;;;;;;5050956;28;20029;-49
2023/07/28 11:03:03;;;;;;;4.03;2.45;;;23.00;99.20;;;;;;5050973;28;20025;-49
2023/07/28 11:05:50;;;;;;;3.35;2.65;;;23.20;99.30;;;;;;5052098;28;20057;-53
2023/07/28 11:08:36;;;;;;;2.78;2.50;;;23.40;99.00;;;;;;5052445;28;20021;-46
2023/07/28 11:11:23;;;;;;;3.47;2.45;;;23.30;99.10;;;;;;5050762;28;20046;-50
2023/07/28 11:14:11;;;;;;;3.95;2.40;;;23.30;99.10;;;;;;5049940;28;20033;-50
2023/07/28 11:16:57;;;;;;;3.72;2.58;;;23.20;99.40;;;;;;5049399;28;20071;-61
2023/07/28 11:19:43;;;;;;;3.20;2.90;;;23.30;98.80;;;;;;5051123;28;20028;-45
2023/07/28 11:22:29;;;;;;;2.85;2.58;;;23.30;99.00;;;;;;5050554;28;20025;-54
2023/07/28 11:25:15;;;;;;;4.35;2.70;;;23.50;99.00;;;;;;5049114;28;20116;-51
2023/07/28 11:28:05;;;;;;;3.10;2.67;;;23.40;99.20;;;;;;5049837;28;20025;-55
2023/07/28 11:30:52;;;;;;;3.78;2.58;;;23.70;99.20;;;;;;5037704;28;20120;-50
2023/07/28 11:33:39;;;;;;;3.75;3.38;;;23.90;98.50;;;;;;5050114;28;20095;-52
2023/07/28 11:36:26;;;;;;;5.97;2.40;;;24.20;98.30;;;;;;5049062;28;20036;-48
2023/07/28 11:39:14;;;;;;;3.00;2.70;;;24.30;97.80;;;;;;5036644;28;20017;-48
2023/07/28 11:42:00;;;;;;;3.55;2.50;;;24.40;97.90;;;;;;5051011;28;20021;-48
2023/07/28 11:44:46;;;;;;;5.50;2.67;;;24.60;98.00;;;;;;5050595;28;20090;-46
2023/07/28 11:47:32;;;;;;;4.07;3.30;;;24.50;97.30;;;;;;5049491;28;20064;-49
2023/07/28 11:50:29;;;;;;;3.70;2.40;;;24.60;96.50;;;;;;5050171;28;20076;-49
2023/07/28 11:53:15;;;;;;;2.80;2.50;;;24.70;96.70;;;;;;5052206;28;20518;-55
2023/07/28 11:56:02;;;;;;;3.35;2.53;;;24.80;96.80;;;;;;5049896;28;20029;-46
2023/07/28 11:58:54;;;;;;;4.43;2.80;;;24.80;96.90;;;;;;5035843;28;20021;-56
2023/07/28 12:01:58;;;;;;;3.30;2.28;;;24.70;96.40;;;;;;5051239;28;20027;-55
2023/07/28 12:04:46;;;;;;;3.90;2.70;;;24.90;96.40;;;;;;5036057;28;20032;-49
2023/07/28 12:07:34;;;;;;;4.15;2.90;;;24.80;96.80;;;;;;5049523;28;20110;-47
2023/07/28 12:10:20;;;;;;;3.00;2.70;;;24.80;96.60;;;;;;5046410;28;20025;-55
2023/07/28 12:13:07;;;;;;;3.05;2.60;;;24.90;96.10;;;;;;5040935;28;20021;-51
2023/07/28 12:15:53;;;;;;;3.03;2.50;;;24.90;96.40;;;;;;5028118;28;20033;-47
2023/07/28 12:18:39;;;;;;;4.85;2.60;;;24.90;96.70;;;;;;5043233;28;20128;-55
2023/07/28 12:21:27;;;;;;;3.20;2.50;;;25.00;96.50;;;;;;5040619;28;20033;-59
2023/07/28 12:24:14;;;;;;;2.70;2.50;;;25.30;96.20;;;;;;5025561;28;20113;-47
2023/07/28 12:27:00;;;;;;;3.13;2.72;;;25.40;95.70;;;;;;5032056;28;20025;-52
2023/07/28 12:29:46;;;;;;;3.35;2.38;;;25.40;95.10;;;;;;5031474;28;20050;-50
2023/07/28 12:32:32;;;;;;;3.63;2.67;;;25.70;95.00;;;;;;5051150;28;20025;-53
2023/07/28 12:35:18;;;;;;;3.30;2.90;;;25.50;94.50;;;;;;5040937;28;20032;-53
2023/07/28 12:38:06;;;;;;;4.45;2.80;;;25.40;94.60;;;;;;5052684;28;20021;-49
2023/07/28 12:40:52;;;;;;;4.20;2.90;;;25.70;94.10;;;;;;5041347;28;20030;-48
2023/07/28 12:43:38;;;;;;;3.40;3.10;;;25.80;93.90;;;;;;5020642;28;20427;-47
2023/07/28 12:46:24;;;;;;;4.75;2.95;;;25.80;93.20;;;;;;5039225;28;20097;-46
2023/07/28 12:49:10;;;;;;;6.05;3.17;;;25.70;93.70;;;;;;5052784;28;20071;-48
2023/07/28 12:51:57;;;;;;;3.30;2.97;;;26.00;93.50;;;;;;5053814;28;20572;-48
2023/07/28 12:54:47;;;;;;;3.72;2.90;;;26.30;93.20;;;;;;5054539;28;20025;-49
2023/07/28 12:57:33;;;;;;;5.80;2.80;;;26.50;92.80;;;;;;5052179;28;20393;-53
2023/07/28 13:00:19;;;;;;;3.75;3.40;;;26.50;92.50;;;;;;5039085;28;20017;-51
2023/07/28 13:03:06;;;;;;;3.58;3.28;;;26.40;92.60;;;;;;5053306;28;20051;-52
2023/07/28 13:05:52;;;;;;;3.78;3.38;;;26.10;92.80;;;;;;5046237;28;20083;-52
2023/07/28 13:08:38;;;;;;;3.58;3.22;;;26.00;92.50;;;;;;5052669;28;20021;-52
2023/07/28 13:11:24;;;;;;;5.38;2.97;;;26.10;92.30;;;;;;5039634;28;20029;-50
2023/07/28 13:14:10;;;;;;;4.53;3.15;;;26.20;92.30;;;;;;5053124;28;20112;-49
2023/07/28 13:16:56;;;;;;;3.13;2.83;;;26.40;92.60;;;;;;5053016;28;20029;-50
2023/07/28 13:19:42;;;;;;;3.67;3.20;;;26.80;92.20;;;;;;5052153;28;20025;-56
2023/07/28 13:22:28;;;;;;;4.82;2.90;;;26.90;91.80;;;;;;5039847;28;20043;-46
2023/07/28 13:25:14;;;;;;;3.40;3.10;;;26.90;91.70;;;;;;5053318;28;20029;-48
2023/07/28 13:28:00;;;;;;;4.50;3.20;;;26.90;91.40;;;;;;5051766;28;20035;-50
2023/07/28 13:30:46;;;;;;;3.30;3.00;;;26.80;91.30;;;;;;5053461;28;20032;-51
2023/07/28 13:33:32;;;;;;;4.22;2.85;;;27.00;90.90;;;;;;5052182;28;20024;-54
2023/07/28 13:36:18;;;;;;;3.85;3.45;;;27.00;90.10;;;;;;5038842;28;20074;-54
2023/07/28 13:39:04;;;;;;;3.67;3.20;;;27.20;89.10;;;;;;5051956;28;20187;-49
2023/07/28 13:41:50;;;;;;;3.83;3.05;;;27.10;89.30;;;;;;5052487;28;20516;-54
2023/07/28 13:44:37;;;;;;;3.38;3.00;;;26.60;90.30;;;;;;5053166;28;20025;-51
2023/07/28 13:47:23;;;;;;;3.67;3.08;;;26.90;89.50;;;;;;5053990;28;20083;-55
2023/07/28 13:50:09;;;;;;;3.63;3.13;;;26.80;89.10;;;;;;5051832;28;20029;-53
2023/07/28 13:52:55;;;;;;;4.72;3.10;;;26.90;89.50;;;;;;5052053;28;20374;-47
2023/07/28 13:55:41;;;;;;;3.00;2.70;;;27.10;89.20;;;;;;5052466;28;20511;-54
2023/07/28 13:58:27;;;;;;;3.22;2.92;;;27.00;87.80;;;;;;5056515;28;20493;-53
2023/07/28 14:01:13;;;;;;;3.58;3.00;;;27.00;88.70;;;;;;5072604;28;20404;-53
2023/07/28 14:03:59;;;;;;;4.30;3.00;;;27.30;88.10;;;;;;5057720;28;20401;-55
2023/07/28 14:06:45;;;;;;;3.50;3.00;;;27.40;87.10;;;;;;5072676;28;20025;-50
2023/07/28 14:09:31;;;;;;;4.22;2.92;;;27.20;87.70;;;;;;5056665;28;20041;-56
2023/07/28 14:12:18;;;;;;;3.47;3.13;;;26.80;88.40;;;;;;5072026;28;20040;-56
2023/07/28 14:15:06;;;;;;;3.70;3.30;;;26.90;87.90;;;;;;5071062;28;20071;-48
2023/07/28 14:17:52;;;;;;;5.28;3.42;;;27.30;88.20;;;;;;5072485;28;20016;-52
2023/07/28 14:20:38;;;;;;;3.10;2.80;;;27.50;87.80;;;;;;5057825;28;20477;-50
2023/07/28 14:23:26;;;;;;;3.30;3.00;;;27.60;87.50;;;;;;5071169;28;20028;-51
2023/07/28 14:26:12;;;;;;;3.22;2.75;;;27.90;85.70;;;;;;5072532;28;20025;-49
2023/07/28 14:28:58;;;;;;;3.95;3.10;;;27.50;86.30;;;;;;5072029;28;20036;-50